sensor_id;sensor_type;location;lat;lon;timestamp;P1;durP1;ratioP1;P2;durP2;ratioP2
71769;SDS011;66386;52.122;5.420;2023-12-28T00:01:45;2.60;;;1.33;;
71769;SDS011;66386;52.122;5.420;2023-12-28T00:04:12;3.42;;;1.30;;
71769;SDS011;66386;52.122;5.420;2023-12-28T00:06:39;6.13;;;1.92;;
71769;SDS011;66386;52.122;5.420;2023-12-28T00:09:05;3.80;;;1.17;;
71769;SDS011;66386;52.122;5.420;2023-12-28T00:11:37;2.75;;;1.27;;
71769;SDS011;66386;52.122;5.420;2023-12-28T00:14:04;2.50;;;1.20;;
71769;SDS011;66386;52.122;5.420;2023-12-28T00:16:31;3.85;;;1.15;;
71769;SDS011;66386;52.122;5.420;2023-12-28T00:19:03;2.25;;;1.48;;
71769;SDS011;66386;52.122;5.420;2023-12-28T00:21:31;2.50;;;1.25;;
71769;SDS011;66386;52.122;5.420;2023-12-28T00:23:57;3.83;;;1.05;;
71769;SDS011;66386;52.122;5.420;2023-12-28T00:26:24;2.87;;;1.30;;
71769;SDS011;66386;52.122;5.420;2023-12-28T00:28:50;3.92;;;1.05;;
71769;SDS011;66386;52.122;5.420;2023-12-28T00:31:17;2.80;;;1.10;;
71769;SDS011;66386;52.122;5.420;2023-12-28T00:33:44;2.85;;;1.15;;
71769;SDS011;66386;52.122;5.420;2023-12-28T00:36:10;5.47;;;1.40;;
71769;SDS011;66386;52.122;5.420;2023-12-28T00:38:37;5.23;;;1.40;;
71769;SDS011;66386;52.122;5.420;2023-12-28T00:41:04;2.95;;;1.38;;
71769;SDS011;66386;52.122;5.420;2023-12-28T00:43:30;3.22;;;1.60;;
71769;SDS011;66386;52.122;5.420;2023-12-28T00:45:57;3.05;;;1.27;;
71769;SDS011;66386;52.122;5.420;2023-12-28T00:48:23;3.95;;;1.20;;
71769;SDS011;66386;52.122;5.420;2023-12-28T00:50:50;5.20;;;1.47;;
71769;SDS011;66386;52.122;5.420;2023-12-28T00:53:17;2.20;;;1.02;;
71769;SDS011;66386;52.122;5.420;2023-12-28T00:55:43;2.72;;;1.10;;
71769;SDS011;66386;52.122;5.420;2023-12-28T00:58:10;4.15;;;1.23;;
71769;SDS011;66386;52.122;5.420;2023-12-28T01:00:36;3.27;;;1.30;;
71769;SDS011;66386;52.122;5.420;2023-12-28T01:03:03;2.40;;;1.00;;
71769;SDS011;66386;52.122;5.420;2023-12-28T01:05:30;3.80;;;1.10;;
71769;SDS011;66386;52.122;5.420;2023-12-28T01:07:56;3.75;;;1.08;;
71769;SDS011;66386;52.122;5.420;2023-12-28T01:10:23;3.95;;;1.55;;
71769;SDS011;66386;52.122;5.420;2023-12-28T01:12:50;2.90;;;1.13;;
71769;SDS011;66386;52.122;5.420;2023-12-28T01:15:16;5.15;;;1.38;;
71769;SDS011;66386;52.122;5.420;2023-12-28T01:17:44;3.10;;;1.23;;
71769;SDS011;66386;52.122;5.420;2023-12-28T01:20:11;3.13;;;1.05;;
71769;SDS011;66386;52.122;5.420;2023-12-28T01:22:38;2.53;;;1.40;;
71769;SDS011;66386;52.122;5.420;2023-12-28T01:25:04;3.87;;;1.30;;
71769;SDS011;66386;52.122;5.420;2023-12-28T01:27:31;1.92;;;1.08;;
71769;SDS011;66386;52.122;5.420;2023-12-28T01:29:57;3.15;;;1.50;;
71769;SDS011;66386;52.122;5.420;2023-12-28T01:32:24;2.63;;;1.10;;
71769;SDS011;66386;52.122;5.420;2023-12-28T01:34:50;5.28;;;1.20;;
71769;SDS011;66386;52.122;5.420;2023-12-28T01:37:17;3.97;;;1.30;;
71769;SDS011;66386;52.122;5.420;2023-12-28T01:39:44;3.63;;;1.00;;
71769;SDS011;66386;52.122;5.420;2023-12-28T01:42:10;2.13;;;1.00;;
71769;SDS011;66386;52.122;5.420;2023-12-28T01:44:37;4.85;;;1.70;;
71769;SDS011;66386;52.122;5.420;2023-12-28T01:47:03;2.38;;;1.20;;
71769;SDS011;66386;52.122;5.420;2023-12-28T01:49:31;4.57;;;1.20;;
71769;SDS011;66386;52.122;5.420;2023-12-28T01:52:00;5.05;;;1.27;;
71769;SDS011;66386;52.122;5.420;2023-12-28T01:54:28;2.78;;;1.15;;
71769;SDS011;66386;52.122;5.420;2023-12-28T01:56:57;3.35;;;1.15;;
71769;SDS011;66386;52.122;5.420;2023-12-28T01:59:26;5.95;;;0.90;;
71769;SDS011;66386;52.122;5.420;2023-12-28T02:01:52;1.70;;;1.20;;
71769;SDS011;66386;52.122;5.420;2023-12-28T02:04:19;3.70;;;1.25;;
71769;SDS011;66386;52.122;5.420;2023-12-28T02:06:54;4.28;;;1.58;;
71769;SDS011;66386;52.122;5.420;2023-12-28T02:09:23;2.47;;;1.10;;
71769;SDS011;66386;52.122;5.420;2023-12-28T02:11:50;2.80;;;1.30;;
71769;SDS011;66386;52.122;5.420;2023-12-28T02:14:17;2.30;;;1.20;;
71769;SDS011;66386;52.122;5.420;2023-12-28T02:16:46;3.38;;;1.52;;
71769;SDS011;66386;52.122;5.420;2023-12-28T02:19:30;5.40;;;1.45;;
71769;SDS011;66386;52.122;5.420;2023-12-28T02:21:59;2.40;;;1.00;;
71769;SDS011;66386;52.122;5.420;2023-12-28T02:24:27;3.45;;;0.90;;
71769;SDS011;66386;52.122;5.420;2023-12-28T02:26:53;2.80;;;0.90;;
71769;SDS011;66386;52.122;5.420;2023-12-28T02:29:20;2.33;;;0.90;;
71769;SDS011;66386;52.122;5.420;2023-12-28T02:31:49;3.58;;;1.55;;
71769;SDS011;66386;52.122;5.420;2023-12-28T02:34:28;5.85;;;1.27;;
71769;SDS011;66386;52.122;5.420;2023-12-28T02:37:00;4.03;;;1.08;;
71769;SDS011;66386;52.122;5.420;2023-12-28T02:39:28;3.17;;;0.70;;
71769;SDS011;66386;52.122;5.420;2023-12-28T02:41:56;3.55;;;1.10;;
71769;SDS011;66386;52.122;5.420;2023-12-28T02:44:23;3.33;;;0.80;;
71769;SDS011;66386;52.122;5.420;2023-12-28T02:46:50;3.47;;;0.70;;
71769;SDS011;66386;52.122;5.420;2023-12-28T02:49:16;5.00;;;1.10;;
71769;SDS011;66386;52.122;5.420;2023-12-28T02:51:43;5.50;;;0.87;;
71769;SDS011;66386;52.122;5.420;2023-12-28T02:54:09;3.90;;;1.35;;
71769;SDS011;66386;52.122;5.420;2023-12-28T02:56:36;3.08;;;1.10;;
71769;SDS011;66386;52.122;5.420;2023-12-28T02:59:02;3.97;;;0.73;;
71769;SDS011;66386;52.122;5.420;2023-12-28T03:01:29;2.90;;;0.80;;
71769;SDS011;66386;52.122;5.420;2023-12-28T03:03:56;3.53;;;0.80;;
71769;SDS011;66386;52.122;5.420;2023-12-28T03:06:22;1.80;;;0.98;;
71769;SDS011;66386;52.122;5.420;2023-12-28T03:08:49;3.90;;;0.63;;
71769;SDS011;66386;52.122;5.420;2023-12-28T03:11:15;3.85;;;0.52;;
71769;SDS011;66386;52.122;5.420;2023-12-28T03:13:42;5.43;;;1.08;;
71769;SDS011;66386;52.122;5.420;2023-12-28T03:16:09;2.83;;;0.63;;
71769;SDS011;66386;52.122;5.420;2023-12-28T03:18:35;5.95;;;0.77;;
71769;SDS011;66386;52.122;5.420;2023-12-28T03:21:02;4.07;;;0.95;;
71769;SDS011;66386;52.122;5.420;2023-12-28T03:23:28;9.07;;;1.23;;
71769;SDS011;66386;52.122;5.420;2023-12-28T03:25:55;4.00;;;1.00;;
71769;SDS011;66386;52.122;5.420;2023-12-28T03:28:21;7.17;;;1.00;;
71769;SDS011;66386;52.122;5.420;2023-12-28T03:30:47;2.72;;;0.77;;
71769;SDS011;66386;52.122;5.420;2023-12-28T03:33:14;3.95;;;0.63;;
71769;SDS011;66386;52.122;5.420;2023-12-28T03:35:41;6.00;;;0.82;;
71769;SDS011;66386;52.122;5.420;2023-12-28T03:40:41;6.13;;;0.70;;
71769;SDS011;66386;52.122;5.420;2023-12-28T03:43:07;4.55;;;0.80;;
71769;SDS011;66386;52.122;5.420;2023-12-28T03:45:34;6.72;;;0.90;;
71769;SDS011;66386;52.122;5.420;2023-12-28T03:48:01;4.18;;;0.50;;
71769;SDS011;66386;52.122;5.420;2023-12-28T03:50:28;5.63;;;1.10;;
71769;SDS011;66386;52.122;5.420;2023-12-28T03:52:54;4.93;;;1.07;;
71769;SDS011;66386;52.122;5.420;2023-12-28T03:55:22;3.95;;;0.82;;
71769;SDS011;66386;52.122;5.420;2023-12-28T03:57:48;6.60;;;1.17;;
71769;SDS011;66386;52.122;5.420;2023-12-28T04:00:15;4.00;;;0.73;;
71769;SDS011;66386;52.122;5.420;2023-12-28T04:02:42;5.70;;;1.05;;
71769;SDS011;66386;52.122;5.420;2023-12-28T04:05:09;2.70;;;0.80;;
71769;SDS011;66386;52.122;5.420;2023-12-28T04:07:35;4.50;;;0.65;;
71769;SDS011;66386;52.122;5.420;2023-12-28T04:10:02;4.10;;;1.02;;
71769;SDS011;66386;52.122;5.420;2023-12-28T04:12:29;4.75;;;0.80;;
71769;SDS011;66386;52.122;5.420;2023-12-28T04:14:55;3.10;;;0.82;;
71769;SDS011;66386;52.122;5.420;2023-12-28T04:17:22;2.07;;;0.67;;
71769;SDS011;66386;52.122;5.420;2023-12-28T04:19:48;4.93;;;1.23;;
71769;SDS011;66386;52.122;5.420;2023-12-28T04:22:15;5.28;;;1.27;;
71769;SDS011;66386;52.122;5.420;2023-12-28T04:24:41;3.42;;;0.82;;
71769;SDS011;66386;52.122;5.420;2023-12-28T04:27:08;3.35;;;0.70;;
71769;SDS011;66386;52.122;5.420;2023-12-28T04:29:35;4.60;;;0.73;;
71769;SDS011;66386;52.122;5.420;2023-12-28T04:32:01;4.93;;;0.73;;
71769;SDS011;66386;52.122;5.420;2023-12-28T04:34:28;4.78;;;1.15;;
71769;SDS011;66386;52.122;5.420;2023-12-28T04:36:55;3.83;;;0.85;;
71769;SDS011;66386;52.122;5.420;2023-12-28T04:39:21;3.88;;;0.80;;
71769;SDS011;66386;52.122;5.420;2023-12-28T04:41:48;4.63;;;0.60;;
71769;SDS011;66386;52.122;5.420;2023-12-28T04:44:16;7.47;;;0.90;;
71769;SDS011;66386;52.122;5.420;2023-12-28T04:46:43;5.97;;;0.80;;
71769;SDS011;66386;52.122;5.420;2023-12-28T04:49:10;4.65;;;1.08;;
71769;SDS011;66386;52.122;5.420;2023-12-28T04:51:41;3.90;;;0.60;;
71769;SDS011;66386;52.122;5.420;2023-12-28T04:54:09;8.07;;;0.60;;
71769;SDS011;66386;52.122;5.420;2023-12-28T04:56:35;5.68;;;1.15;;
71769;SDS011;66386;52.122;5.420;2023-12-28T04:59:02;3.85;;;0.70;;
71769;SDS011;66386;52.122;5.420;2023-12-28T05:01:28;5.40;;;0.73;;
71769;SDS011;66386;52.122;5.420;2023-12-28T05:03:58;5.55;;;1.00;;
71769;SDS011;66386;52.122;5.420;2023-12-28T05:06:27;3.23;;;0.60;;
71769;SDS011;66386;52.122;5.420;2023-12-28T05:08:54;13.13;;;1.33;;
71769;SDS011;66386;52.122;5.420;2023-12-28T05:11:20;4.63;;;0.70;;
71769;SDS011;66386;52.122;5.420;2023-12-28T05:13:46;5.78;;;0.88;;
71769;SDS011;66386;52.122;5.420;2023-12-28T05:16:13;4.70;;;0.95;;
71769;SDS011;66386;52.122;5.420;2023-12-28T05:18:39;5.00;;;0.40;;
71769;SDS011;66386;52.122;5.420;2023-12-28T05:21:06;9.35;;;1.55;;
71769;SDS011;66386;52.122;5.420;2023-12-28T05:23:32;9.95;;;1.50;;
71769;SDS011;66386;52.122;5.420;2023-12-28T05:25:59;9.27;;;0.90;;
71769;SDS011;66386;52.122;5.420;2023-12-28T05:28:25;5.38;;;0.60;;
71769;SDS011;66386;52.122;5.420;2023-12-28T05:30:52;6.13;;;0.80;;
71769;SDS011;66386;52.122;5.420;2023-12-28T05:33:18;7.03;;;1.00;;
71769;SDS011;66386;52.122;5.420;2023-12-28T05:35:45;10.60;;;1.30;;
71769;SDS011;66386;52.122;5.420;2023-12-28T05:38:12;6.43;;;0.80;;
71769;SDS011;66386;52.122;5.420;2023-12-28T05:40:38;6.25;;;1.15;;
71769;SDS011;66386;52.122;5.420;2023-12-28T05:43:05;9.80;;;0.90;;
71769;SDS011;66386;52.122;5.420;2023-12-28T05:45:31;7.15;;;0.75;;
71769;SDS011;66386;52.122;5.420;2023-12-28T05:47:58;7.15;;;1.17;;
71769;SDS011;66386;52.122;5.420;2023-12-28T05:50:25;5.68;;;0.45;;
71769;SDS011;66386;52.122;5.420;2023-12-28T05:52:51;7.43;;;0.60;;
71769;SDS011;66386;52.122;5.420;2023-12-28T05:55:18;6.03;;;0.50;;
71769;SDS011;66386;52.122;5.420;2023-12-28T05:57:44;5.30;;;0.68;;
71769;SDS011;66386;52.122;5.420;2023-12-28T06:00:11;8.07;;;1.27;;
71769;SDS011;66386;52.122;5.420;2023-12-28T06:02:38;8.23;;;0.90;;
71769;SDS011;66386;52.122;5.420;2023-12-28T06:05:05;9.10;;;1.00;;
71769;SDS011;66386;52.122;5.420;2023-12-28T06:07:31;8.47;;;0.67;;
71769;SDS011;66386;52.122;5.420;2023-12-28T06:09:58;6.72;;;1.10;;
71769;SDS011;66386;52.122;5.420;2023-12-28T06:12:25;8.95;;;0.98;;
71769;SDS011;66386;52.122;5.420;2023-12-28T06:14:52;6.55;;;0.95;;
71769;SDS011;66386;52.122;5.420;2023-12-28T06:17:18;5.25;;;0.73;;
71769;SDS011;66386;52.122;5.420;2023-12-28T06:19:45;9.73;;;1.43;;
71769;SDS011;66386;52.122;5.420;2023-12-28T06:22:11;11.02;;;1.30;;
71769;SDS011;66386;52.122;5.420;2023-12-28T06:24:38;4.13;;;0.70;;
71769;SDS011;66386;52.122;5.420;2023-12-28T06:27:06;7.50;;;0.60;;
71769;SDS011;66386;52.122;5.420;2023-12-28T06:29:33;8.68;;;0.90;;
71769;SDS011;66386;52.122;5.420;2023-12-28T06:31:59;12.63;;;0.80;;
71769;SDS011;66386;52.122;5.420;2023-12-28T06:34:26;9.05;;;0.88;;
71769;SDS011;66386;52.122;5.420;2023-12-28T06:36:53;3.58;;;0.60;;
71769;SDS011;66386;52.122;5.420;2023-12-28T06:39:20;6.47;;;1.13;;
71769;SDS011;66386;52.122;5.420;2023-12-28T06:41:47;6.93;;;1.20;;
71769;SDS011;66386;52.122;5.420;2023-12-28T06:44:14;10.20;;;1.17;;
71769;SDS011;66386;52.122;5.420;2023-12-28T06:46:41;7.13;;;1.00;;
71769;SDS011;66386;52.122;5.420;2023-12-28T06:51:35;12.55;;;0.98;;
71769;SDS011;66386;52.122;5.420;2023-12-28T06:54:01;11.05;;;1.40;;
71769;SDS011;66386;52.122;5.420;2023-12-28T06:56:28;15.87;;;1.10;;
71769;SDS011;66386;52.122;5.420;2023-12-28T06:58:54;11.00;;;1.20;;
71769;SDS011;66386;52.122;5.420;2023-12-28T07:01:21;8.02;;;0.73;;
71769;SDS011;66386;52.122;5.420;2023-12-28T07:03:47;8.23;;;1.65;;
71769;SDS011;66386;52.122;5.420;2023-12-28T07:06:14;8.57;;;0.80;;
71769;SDS011;66386;52.122;5.420;2023-12-28T07:08:41;6.87;;;0.70;;
71769;SDS011;66386;52.122;5.420;2023-12-28T07:11:09;8.65;;;0.65;;
71769;SDS011;66386;52.122;5.420;2023-12-28T07:13:36;11.45;;;1.35;;
71769;SDS011;66386;52.122;5.420;2023-12-28T07:16:02;8.45;;;1.10;;
71769;SDS011;66386;52.122;5.420;2023-12-28T07:18:29;8.45;;;1.00;;
71769;SDS011;66386;52.122;5.420;2023-12-28T07:20:56;8.77;;;1.27;;
71769;SDS011;66386;52.122;5.420;2023-12-28T07:23:23;14.60;;;1.70;;
71769;SDS011;66386;52.122;5.420;2023-12-28T07:25:49;5.95;;;1.35;;
71769;SDS011;66386;52.122;5.420;2023-12-28T07:28:16;9.93;;;1.00;;
71769;SDS011;66386;52.122;5.420;2023-12-28T07:30:42;11.20;;;1.20;;
71769;SDS011;66386;52.122;5.420;2023-12-28T07:33:09;13.23;;;1.60;;
71769;SDS011;66386;52.122;5.420;2023-12-28T07:35:36;8.05;;;1.10;;
71769;SDS011;66386;52.122;5.420;2023-12-28T07:38:03;7.47;;;0.80;;
71769;SDS011;66386;52.122;5.420;2023-12-28T07:40:30;15.68;;;1.80;;
71769;SDS011;66386;52.122;5.420;2023-12-28T07:42:56;10.50;;;0.98;;
71769;SDS011;66386;52.122;5.420;2023-12-28T07:45:23;9.23;;;1.47;;
71769;SDS011;66386;52.122;5.420;2023-12-28T07:47:51;9.32;;;1.38;;
71769;SDS011;66386;52.122;5.420;2023-12-28T07:50:18;8.90;;;1.15;;
71769;SDS011;66386;52.122;5.420;2023-12-28T07:52:45;7.07;;;1.15;;
71769;SDS011;66386;52.122;5.420;2023-12-28T07:55:13;8.25;;;1.00;;
71769;SDS011;66386;52.122;5.420;2023-12-28T07:57:40;10.73;;;1.00;;
71769;SDS011;66386;52.122;5.420;2023-12-28T08:00:07;7.75;;;0.60;;
71769;SDS011;66386;52.122;5.420;2023-12-28T08:02:35;8.95;;;1.30;;
71769;SDS011;66386;52.122;5.420;2023-12-28T08:05:02;9.45;;;1.00;;
71769;SDS011;66386;52.122;5.420;2023-12-28T08:07:30;6.65;;;0.82;;
71769;SDS011;66386;52.122;5.420;2023-12-28T08:09:56;11.37;;;0.90;;
71769;SDS011;66386;52.122;5.420;2023-12-28T08:12:23;5.55;;;0.75;;
71769;SDS011;66386;52.122;5.420;2023-12-28T08:14:50;5.38;;;0.88;;
71769;SDS011;66386;52.122;5.420;2023-12-28T08:17:17;11.50;;;1.20;;
71769;SDS011;66386;52.122;5.420;2023-12-28T08:19:43;8.88;;;0.90;;
71769;SDS011;66386;52.122;5.420;2023-12-28T08:22:10;11.63;;;1.07;;
71769;SDS011;66386;52.122;5.420;2023-12-28T08:24:37;5.93;;;1.45;;
71769;SDS011;66386;52.122;5.420;2023-12-28T08:27:03;9.25;;;0.90;;
71769;SDS011;66386;52.122;5.420;2023-12-28T08:29:30;9.85;;;1.10;;
71769;SDS011;66386;52.122;5.420;2023-12-28T08:31:57;14.55;;;1.67;;
71769;SDS011;66386;52.122;5.420;2023-12-28T08:34:23;7.47;;;0.70;;
71769;SDS011;66386;52.122;5.420;2023-12-28T08:36:50;13.20;;;1.20;;
71769;SDS011;66386;52.122;5.420;2023-12-28T08:39:17;17.95;;;1.52;;
71769;SDS011;66386;52.122;5.420;2023-12-28T08:41:43;7.25;;;0.90;;
71769;SDS011;66386;52.122;5.420;2023-12-28T08:44:10;10.38;;;1.60;;
71769;SDS011;66386;52.122;5.420;2023-12-28T08:46:36;9.63;;;1.33;;
71769;SDS011;66386;52.122;5.420;2023-12-28T08:49:03;11.43;;;2.00;;
71769;SDS011;66386;52.122;5.420;2023-12-28T08:51:29;7.20;;;1.00;;
71769;SDS011;66386;52.122;5.420;2023-12-28T08:53:56;8.02;;;0.85;;
71769;SDS011;66386;52.122;5.420;2023-12-28T08:56:22;7.60;;;1.00;;
71769;SDS011;66386;52.122;5.420;2023-12-28T08:58:49;10.63;;;1.73;;
71769;SDS011;66386;52.122;5.420;2023-12-28T09:01:22;10.48;;;1.35;;
71769;SDS011;66386;52.122;5.420;2023-12-28T09:03:52;11.90;;;1.08;;
71769;SDS011;66386;52.122;5.420;2023-12-28T09:06:19;15.30;;;1.20;;
71769;SDS011;66386;52.122;5.420;2023-12-28T09:08:48;12.98;;;0.90;;
71769;SDS011;66386;52.122;5.420;2023-12-28T09:11:17;8.37;;;1.47;;
71769;SDS011;66386;52.122;5.420;2023-12-28T09:13:44;6.07;;;0.77;;
71769;SDS011;66386;52.122;5.420;2023-12-28T09:16:11;13.48;;;1.52;;
71769;SDS011;66386;52.122;5.420;2023-12-28T09:18:40;8.20;;;0.90;;
71769;SDS011;66386;52.122;5.420;2023-12-28T09:21:08;10.80;;;0.93;;
71769;SDS011;66386;52.122;5.420;2023-12-28T09:23:35;6.83;;;0.90;;
71769;SDS011;66386;52.122;5.420;2023-12-28T09:26:02;12.20;;;1.20;;
71769;SDS011;66386;52.122;5.420;2023-12-28T09:28:30;11.98;;;1.70;;
71769;SDS011;66386;52.122;5.420;2023-12-28T09:30:57;9.55;;;1.40;;
71769;SDS011;66386;52.122;5.420;2023-12-28T09:33:24;9.90;;;0.88;;
71769;SDS011;66386;52.122;5.420;2023-12-28T09:35:50;9.23;;;0.97;;
71769;SDS011;66386;52.122;5.420;2023-12-28T09:38:19;13.50;;;1.40;;
71769;SDS011;66386;52.122;5.420;2023-12-28T09:40:46;13.18;;;1.20;;
71769;SDS011;66386;52.122;5.420;2023-12-28T09:43:23;13.70;;;1.08;;
71769;SDS011;66386;52.122;5.420;2023-12-28T09:46:07;11.82;;;1.10;;
71769;SDS011;66386;52.122;5.420;2023-12-28T09:48:34;13.70;;;1.03;;
71769;SDS011;66386;52.122;5.420;2023-12-28T09:51:03;15.52;;;1.00;;
71769;SDS011;66386;52.122;5.420;2023-12-28T09:53:29;13.45;;;1.00;;
71769;SDS011;66386;52.122;5.420;2023-12-28T09:55:56;11.73;;;1.00;;
71769;SDS011;66386;52.122;5.420;2023-12-28T09:58:23;9.35;;;0.95;;
71769;SDS011;66386;52.122;5.420;2023-12-28T10:00:50;9.07;;;0.90;;
71769;SDS011;66386;52.122;5.420;2023-12-28T10:03:17;10.75;;;1.27;;
71769;SDS011;66386;52.122;5.420;2023-12-28T10:05:45;11.38;;;0.90;;
71769;SDS011;66386;52.122;5.420;2023-12-28T10:08:16;13.80;;;1.00;;
71769;SDS011;66386;52.122;5.420;2023-12-28T10:10:43;10.10;;;0.82;;
71769;SDS011;66386;52.122;5.420;2023-12-28T10:13:17;13.63;;;1.50;;
71769;SDS011;66386;52.122;5.420;2023-12-28T10:15:44;7.18;;;0.82;;
71769;SDS011;66386;52.122;5.420;2023-12-28T10:18:11;14.50;;;2.15;;
71769;SDS011;66386;52.122;5.420;2023-12-28T10:20:38;13.45;;;1.38;;
71769;SDS011;66386;52.122;5.420;2023-12-28T10:23:05;10.10;;;1.20;;
71769;SDS011;66386;52.122;5.420;2023-12-28T10:25:32;7.80;;;0.90;;
71769;SDS011;66386;52.122;5.420;2023-12-28T10:28:03;6.22;;;0.70;;
71769;SDS011;66386;52.122;5.420;2023-12-28T10:30:32;5.85;;;1.15;;
71769;SDS011;66386;52.122;5.420;2023-12-28T10:32:59;10.38;;;0.80;;
71769;SDS011;66386;52.122;5.420;2023-12-28T10:35:27;12.77;;;1.45;;
71769;SDS011;66386;52.122;5.420;2023-12-28T10:37:54;11.57;;;1.10;;
71769;SDS011;66386;52.122;5.420;2023-12-28T10:40:25;11.68;;;0.98;;
71769;SDS011;66386;52.122;5.420;2023-12-28T10:42:59;10.23;;;1.67;;
71769;SDS011;66386;52.122;5.420;2023-12-28T10:45:31;7.18;;;1.13;;
71769;SDS011;66386;52.122;5.420;2023-12-28T10:48:07;11.07;;;0.90;;
71769;SDS011;66386;52.122;5.420;2023-12-28T10:50:41;7.90;;;0.67;;
71769;SDS011;66386;52.122;5.420;2023-12-28T10:55:50;15.65;;;1.35;;
71769;SDS011;66386;52.122;5.420;2023-12-28T10:58:31;7.25;;;0.80;;
71769;SDS011;66386;52.122;5.420;2023-12-28T11:01:04;7.82;;;1.20;;
71769;SDS011;66386;52.122;5.420;2023-12-28T11:03:37;12.77;;;1.23;;
71769;SDS011;66386;52.122;5.420;2023-12-28T11:06:05;7.57;;;0.90;;
71769;SDS011;66386;52.122;5.420;2023-12-28T11:08:33;10.18;;;0.95;;
71769;SDS011;66386;52.122;5.420;2023-12-28T11:11:01;12.35;;;1.67;;
71769;SDS011;66386;52.122;5.420;2023-12-28T11:13:29;12.07;;;1.00;;
71769;SDS011;66386;52.122;5.420;2023-12-28T11:15:58;13.47;;;0.90;;
71769;SDS011;66386;52.122;5.420;2023-12-28T11:18:26;12.40;;;1.90;;
71769;SDS011;66386;52.122;5.420;2023-12-28T11:20:55;13.75;;;1.23;;
71769;SDS011;66386;52.122;5.420;2023-12-28T11:23:22;13.18;;;0.73;;
71769;SDS011;66386;52.122;5.420;2023-12-28T11:25:49;12.52;;;1.15;;
71769;SDS011;66386;52.122;5.420;2023-12-28T11:28:16;8.80;;;0.90;;
71769;SDS011;66386;52.122;5.420;2023-12-28T11:30:42;13.85;;;1.67;;
71769;SDS011;66386;52.122;5.420;2023-12-28T11:33:10;11.15;;;1.27;;
71769;SDS011;66386;52.122;5.420;2023-12-28T11:35:40;11.60;;;1.13;;
71769;SDS011;66386;52.122;5.420;2023-12-28T11:38:08;12.80;;;1.52;;
71769;SDS011;66386;52.122;5.420;2023-12-28T11:40:44;9.43;;;1.10;;
71769;SDS011;66386;52.122;5.420;2023-12-28T11:43:20;9.63;;;0.93;;
71769;SDS011;66386;52.122;5.420;2023-12-28T11:45:51;10.32;;;1.00;;
71769;SDS011;66386;52.122;5.420;2023-12-28T11:48:24;12.95;;;1.60;;
71769;SDS011;66386;52.122;5.420;2023-12-28T11:50:57;11.93;;;1.63;;
71769;SDS011;66386;52.122;5.420;2023-12-28T11:53:25;9.77;;;1.23;;
71769;SDS011;66386;52.122;5.420;2023-12-28T11:55:52;10.65;;;0.90;;
71769;SDS011;66386;52.122;5.420;2023-12-28T11:58:25;9.60;;;0.93;;
71769;SDS011;66386;52.122;5.420;2023-12-28T12:00:51;10.10;;;1.45;;
71769;SDS011;66386;52.122;5.420;2023-12-28T12:03:18;11.68;;;1.00;;
71769;SDS011;66386;52.122;5.420;2023-12-28T12:05:46;13.07;;;1.23;;
71769;SDS011;66386;52.122;5.420;2023-12-28T12:08:24;9.85;;;1.23;;
71769;SDS011;66386;52.122;5.420;2023-12-28T12:11:00;12.20;;;1.10;;
71769;SDS011;66386;52.122;5.420;2023-12-28T12:13:30;13.05;;;1.85;;
71769;SDS011;66386;52.122;5.420;2023-12-28T12:15:57;7.93;;;0.98;;
71769;SDS011;66386;52.122;5.420;2023-12-28T12:18:24;6.27;;;0.87;;
71769;SDS011;66386;52.122;5.420;2023-12-28T12:20:51;11.05;;;1.10;;
71769;SDS011;66386;52.122;5.420;2023-12-28T12:23:18;13.15;;;1.23;;
71769;SDS011;66386;52.122;5.420;2023-12-28T12:25:44;12.07;;;1.10;;
71769;SDS011;66386;52.122;5.420;2023-12-28T12:28:11;12.48;;;1.42;;
71769;SDS011;66386;52.122;5.420;2023-12-28T12:30:38;14.40;;;1.67;;
71769;SDS011;66386;52.122;5.420;2023-12-28T12:33:05;10.73;;;1.20;;
71769;SDS011;66386;52.122;5.420;2023-12-28T12:35:32;14.25;;;1.65;;
71769;SDS011;66386;52.122;5.420;2023-12-28T12:37:59;10.60;;;0.90;;
71769;SDS011;66386;52.122;5.420;2023-12-28T12:40:25;9.07;;;1.05;;
71769;SDS011;66386;52.122;5.420;2023-12-28T12:42:55;18.20;;;1.40;;
71769;SDS011;66386;52.122;5.420;2023-12-28T12:45:22;16.60;;;2.13;;
71769;SDS011;66386;52.122;5.420;2023-12-28T12:47:51;8.93;;;0.93;;
71769;SDS011;66386;52.122;5.420;2023-12-28T12:50:18;8.02;;;0.93;;
71769;SDS011;66386;52.122;5.420;2023-12-28T12:52:46;9.63;;;1.05;;
71769;SDS011;66386;52.122;5.420;2023-12-28T12:55:14;13.33;;;1.57;;
71769;SDS011;66386;52.122;5.420;2023-12-28T12:57:40;9.88;;;1.70;;
71769;SDS011;66386;52.122;5.420;2023-12-28T13:00:09;13.95;;;1.20;;
71769;SDS011;66386;52.122;5.420;2023-12-28T13:02:36;6.13;;;1.70;;
71769;SDS011;66386;52.122;5.420;2023-12-28T13:05:03;9.45;;;1.35;;
71769;SDS011;66386;52.122;5.420;2023-12-28T13:07:31;10.73;;;1.80;;
71769;SDS011;66386;52.122;5.420;2023-12-28T13:09:58;10.63;;;1.10;;
71769;SDS011;66386;52.122;5.420;2023-12-28T13:12:25;13.70;;;1.20;;
71769;SDS011;66386;52.122;5.420;2023-12-28T13:14:51;8.13;;;1.15;;
71769;SDS011;66386;52.122;5.420;2023-12-28T13:17:18;8.75;;;1.10;;
71769;SDS011;66386;52.122;5.420;2023-12-28T13:19:44;7.93;;;1.17;;
71769;SDS011;66386;52.122;5.420;2023-12-28T13:22:11;12.18;;;1.48;;
71769;SDS011;66386;52.122;5.420;2023-12-28T13:24:37;6.47;;;0.73;;
71769;SDS011;66386;52.122;5.420;2023-12-28T13:27:04;11.88;;;1.15;;
71769;SDS011;66386;52.122;5.420;2023-12-28T13:29:31;14.32;;;0.88;;
71769;SDS011;66386;52.122;5.420;2023-12-28T13:31:57;10.00;;;1.10;;
71769;SDS011;66386;52.122;5.420;2023-12-28T13:34:24;13.68;;;0.90;;
71769;SDS011;66386;52.122;5.420;2023-12-28T13:36:51;10.75;;;0.98;;
71769;SDS011;66386;52.122;5.420;2023-12-28T13:39:17;11.80;;;0.90;;
71769;SDS011;66386;52.122;5.420;2023-12-28T13:41:44;11.85;;;1.20;;
71769;SDS011;66386;52.122;5.420;2023-12-28T13:44:10;5.97;;;0.87;;
71769;SDS011;66386;52.122;5.420;2023-12-28T13:46:38;11.43;;;1.98;;
71769;SDS011;66386;52.122;5.420;2023-12-28T13:49:05;12.40;;;1.17;;
71769;SDS011;66386;52.122;5.420;2023-12-28T13:51:34;12.45;;;1.23;;
71769;SDS011;66386;52.122;5.420;2023-12-28T13:54:00;11.32;;;1.77;;
71769;SDS011;66386;52.122;5.420;2023-12-28T13:56:31;11.17;;;1.00;;
71769;SDS011;66386;52.122;5.420;2023-12-28T13:58:57;11.13;;;1.60;;
71769;SDS011;66386;52.122;5.420;2023-12-28T14:01:24;12.05;;;1.40;;
71769;SDS011;66386;52.122;5.420;2023-12-28T14:03:51;14.95;;;1.48;;
71769;SDS011;66386;52.122;5.420;2023-12-28T14:06:18;10.68;;;1.13;;
71769;SDS011;66386;52.122;5.420;2023-12-28T14:08:45;12.57;;;1.00;;
71769;SDS011;66386;52.122;5.420;2023-12-28T14:11:12;19.58;;;1.27;;
71769;SDS011;66386;52.122;5.420;2023-12-28T14:13:38;11.98;;;1.10;;
71769;SDS011;66386;52.122;5.420;2023-12-28T14:16:05;18.30;;;1.83;;
71769;SDS011;66386;52.122;5.420;2023-12-28T14:18:32;7.22;;;0.90;;
71769;SDS011;66386;52.122;5.420;2023-12-28T14:20:59;14.40;;;1.30;;
71769;SDS011;66386;52.122;5.420;2023-12-28T14:23:26;13.00;;;1.38;;
71769;SDS011;66386;52.122;5.420;2023-12-28T14:25:52;14.00;;;1.02;;
71769;SDS011;66386;52.122;5.420;2023-12-28T14:28:20;8.80;;;1.23;;
71769;SDS011;66386;52.122;5.420;2023-12-28T14:30:50;11.30;;;1.23;;
71769;SDS011;66386;52.122;5.420;2023-12-28T14:33:16;10.80;;;1.00;;
71769;SDS011;66386;52.122;5.420;2023-12-28T14:35:43;12.57;;;1.15;;
71769;SDS011;66386;52.122;5.420;2023-12-28T14:38:13;5.90;;;1.00;;
71769;SDS011;66386;52.122;5.420;2023-12-28T14:40:40;14.88;;;1.48;;
71769;SDS011;66386;52.122;5.420;2023-12-28T14:43:06;13.95;;;1.50;;
71769;SDS011;66386;52.122;5.420;2023-12-28T14:45:33;11.97;;;1.53;;
71769;SDS011;66386;52.122;5.420;2023-12-28T14:47:59;15.18;;;1.10;;
71769;SDS011;66386;52.122;5.420;2023-12-28T14:50:26;13.82;;;1.20;;
71769;SDS011;66386;52.122;5.420;2023-12-28T14:52:53;12.32;;;1.65;;